Bynum, Montana
Current Conditions -  °F | °C
As of 9:56 AM on Friday 19 Dec 2014 (Local Time) from KCTB Reporting Station
Broken Clouds Broken Clouds  
Wind Chill: 26°   Ceiling: 12000
Heat Index: 32°   Visibility: 10mi
Dew Point: 24°   Wind: 7mph
Humidity: 73%   Direction: 200°SSW
Pressure: 29.79"   Gusts: NA
Location:  47.98°N, 112.31°W
Report Text: KCTB 191656Z AUTO 20006KT 10SM BKN120 00/M04 A2979 RMK AO2 SLP116 T00001044
Loading
Personal Weather Stations






























Interactive Weather Map New forecast layout! Learn more

10-Day Weather Forecast

Advertisements
Track Severe Weather on mobile